Longview, WA

4:03 AM PDT on June 02, 2015 (GMT -0700)
Eufaula Heights | | Change Station
CLOSE
Current Station
Personal Weather Station
Location: Longview, WA
Elevation: 740 ft
Nearby Weather Stations

Elev 740 ft 46.21 °N, 123.05 °W | Updated 16 seconds ago

Overcast
Overcast
52.5 °F
Feels Like 52.5 °F
N
0.0
Wind Variable Wind from SSE
Gusts 0.0 mph

Today
High -- | Low -- °F
--% Chance of Precip.
Yesterday
High -- | Low -- °F
Precip. -- in
5:23 AM 8:57 PM
Full, 100% visible
Pressure 30.04 in
Visibility 10.0 miles
Clouds Scattered Clouds 2900 ft
Mostly Cloudy 4300 ft
Overcast 6000 ft
Dew Point 52 °F
Humidity 97%
Rainfall 0.09 in
Snow Depth Not available.
UV 0 out of 12
Pollen 6.30 out of 12
Air Quality Not available.
Flu Activity Sporadic
METAR KKLS 021055Z 15005KT 10SM SCT029 BKN043 OVC060 13/11 A3004 RMK AO1 P0002

More Conditions Fewer Conditions

Pressure 30.04 in
Visibility 10.0 miles
Clouds Scattered Clouds 2900 ft
Mostly Cloudy 4300 ft
Overcast 6000 ft
Dew Point 52 °F
Humidity 97%
Rainfall 0.09 in
Snow Depth Not available.
UV 0 out of 12
Pollen 6.30 out of 12
Air Quality Not available.
Flu Activity Sporadic
METAR KKLS 021055Z 15005KT 10SM SCT029 BKN043 OVC060 13/11 A3004 RMK AO1 P0002

More Conditions Fewer Conditions

10-Day Weather Forecast

Almanac

Astronomy

Jun. 02, 2015 Rise Set
Actual Time
Civil Twilight
Nautical Twilight
Astronomical Twilight
Moon
Length of Visible Light
Length of Day
Tomorrow will be .
, % of the Moon is Illuminated

Today's Extremes

State Highs State Lows

Community

WunderPhotos

Upload Photos

1,825,906 photos uploaded!

WunderBlogs® & News

Nearby

Air Quality

  Air Quality AQ Index Pollutant
Not available.

Snow Depth

Station Depth Elevation

Earthquake Activity

City Distance Mag. Time & Date
Minimum magnitude displayed is 2.5.

Coastal Water Temperatures

Place Temperature

Stations

Nearby Weather Stations

Station Location Temp. Windchill Dew Point Humidity Wind Precip. Elev Updated Type